This is the latest recevied weather packets stored in our database for station/object VK4JLM-1. If no packets are shown the sender has not sent any weather packets the latest 10 day(s).
| Time | Temp. | Humidity | Pressure | Rain* | Wind** | Luminosity | Snow |
|---|---|---|---|---|---|---|---|
| 1777799166 | 19.44° C | 87% | 1021.8 hPa | 0 mm | - | - | - |
| 1777798171 | 19.44° C | 90% | 1021.8 hPa | 0 mm | - | - | - |
| 1777796976 | 20° C | 87% | 1021.7 hPa | 0 mm | - | - | - |
| 1777795851 | 20.56° C | 84% | 1021.6 hPa | 0 mm | - | - | - |
| 1777794691 | 21.11° C | 81% | 1021.4 hPa | 0 mm | - | - | - |
| 1777793516 | 21.67° C | 79% | 1021.2 hPa | 0 mm | - | - | - |
| 1777792407 | 22.78° C | 77% | 1021.1 hPa | 0 mm | - | - | - |
| 1777791311 | 22.78° C | 75% | 1021.1 hPa | 0 mm | - | - | - |
| 1777790136 | 23.33° C | 73% | 1020.9 hPa | 0 mm | - | - | - |
| 1777788996 | 23.89° C | 73% | 1020.9 hPa | 0 mm | - | - | - |
| 1777787916 | 27.22° C | 63% | 1021 hPa | 0 mm | - | - | - |
| 1777786726 | 27.22° C | 64% | 1020.8 hPa | 0 mm | - | - | - |
| 1777785591 | 26.67° C | 63% | 1020.8 hPa | 0 mm | - | - | - |
| 1777784446 | 27.22° C | 62% | 1020.8 hPa | 0 mm | - | - | - |
| 1777783346 | 30° C | 55% | 1020.7 hPa | 0 mm | - | - | - |
| 1777782236 | 32.22° C | 50% | 1020.8 hPa | 0 mm | - | - | - |
| 1777781036 | 31.67° C | 50% | 1020.9 hPa | 0 mm | - | - | - |
| 1777780076 | 29.44° C | 56% | 1021 hPa | 0 mm | - | - | - |
| 1777778896 | 32.22° C | 50% | 1021 hPa | 0 mm | - | - | - |
| 1777777771 | 28.89° C | 59% | 1021.2 hPa | 0 mm | - | - | - |
| 1777776726 | 32.78° C | 49% | 1021.4 hPa | 0 mm | - | - | - |
| 1777775736 | 30° C | 55% | 1021.7 hPa | 0 mm | - | - | - |
| 1777774586 | 30.56° C | 53% | 1022 hPa | 0 mm | - | - | - |
| 1777773528 | 27.78° C | 62% | 1022.3 hPa | 0 mm | - | - | - |
| 1777772381 | 30.56° C | 54% | 1022.5 hPa | 0 mm | - | - | - |
* Rain latest hour (hover to see other rain measurements)
** Current wind speed in m/s (hover to see current wind gust speed)